createdAt,value
2023-02-14T08:05:57.345Z,4.45
2023-02-14T08:08:30.684Z,4.58
2023-02-14T08:10:59.138Z,4.59
2023-02-14T08:13:26.713Z,4.71
2023-02-14T08:16:06.392Z,4.95
2023-02-14T08:18:41.953Z,5.14
2023-02-14T08:21:11.510Z,5.22
2023-02-14T08:23:39.222Z,5.22
2023-02-14T08:26:06.634Z,5.16
2023-02-14T08:28:34.929Z,5.40
2023-02-14T08:31:04.601Z,5.47
2023-02-14T08:33:32.134Z,5.55
2023-02-14T08:36:00.211Z,5.33
2023-02-14T08:38:27.540Z,5.43
2023-02-14T08:41:00.070Z,5.74
2023-02-14T08:43:27.521Z,5.73
2023-02-14T08:45:54.908Z,5.44
2023-02-14T08:48:23.593Z,5.80
2023-02-14T08:50:50.966Z,5.77
2023-02-14T08:53:18.470Z,6.03
2023-02-14T08:55:45.822Z,6.32
2023-02-14T08:58:13.188Z,5.96
2023-02-14T09:00:41.034Z,6.31
2023-02-14T09:03:08.714Z,6.43
2023-02-14T09:05:36.054Z,6.79
2023-02-14T09:08:03.979Z,6.88
2023-02-14T09:10:31.572Z,6.91
2023-02-14T09:12:58.865Z,7.21
2023-02-14T09:15:26.183Z,7.34
2023-02-14T09:17:53.580Z,7.52
2023-02-14T09:20:21.212Z,7.70
2023-02-14T09:22:48.960Z,7.59
2023-02-14T09:25:17.508Z,7.91
2023-02-14T09:27:44.826Z,7.99
2023-02-14T09:30:13.520Z,8.29
2023-02-14T09:32:40.873Z,8.41
2023-02-14T09:35:08.510Z,8.47
2023-02-14T09:37:54.339Z,8.61
2023-02-14T09:40:21.988Z,8.72
2023-02-14T09:43:49.009Z,9.05
2023-02-14T09:46:18.834Z,9.17
2023-02-14T09:48:49.482Z,9.12
2023-02-14T09:51:27.760Z,9.17
2023-02-14T09:54:16.058Z,9.53
2023-02-14T09:57:25.283Z,9.50
2023-02-14T10:00:17.264Z,9.79
2023-02-14T10:03:12.090Z,9.98
2023-02-14T10:05:59.771Z,10.22
2023-02-14T10:09:26.652Z,10.44
2023-02-14T10:11:57.877Z,10.62
2023-02-14T10:14:36.510Z,10.82
2023-02-14T10:17:23.369Z,11.19
2023-02-14T10:20:01.163Z,11.18
2023-02-14T10:22:45.249Z,11.46
2023-02-14T10:25:32.460Z,11.32
2023-02-14T10:28:02.620Z,11.48
2023-02-14T10:30:44.042Z,11.71
2023-02-14T10:33:22.801Z,11.45
2023-02-14T10:36:33.150Z,11.44
2023-02-14T10:39:50.249Z,11.63
2023-02-14T10:43:15.351Z,12.36
2023-02-14T10:46:10.451Z,12.32
2023-02-14T10:49:58.239Z,12.73
2023-02-14T10:53:37.405Z,12.94
2023-02-14T10:57:04.194Z,13.33
2023-02-14T11:00:06.771Z,13.13
2023-02-14T11:02:46.895Z,13.26
2023-02-14T11:05:47.588Z,13.43
2023-02-14T11:08:40.312Z,13.82
2023-02-14T11:11:53.455Z,13.85
2023-02-14T11:14:25.076Z,13.87
2023-02-14T11:16:54.773Z,13.86
2023-02-14T11:19:24.942Z,13.97
2023-02-14T11:21:56.717Z,14.53
2023-02-14T11:24:35.793Z,14.57
2023-02-14T11:27:19.363Z,14.54
2023-02-14T11:29:52.366Z,14.88
2023-02-14T11:32:31.174Z,14.87
2023-02-14T11:35:13.850Z,15.14
2023-02-14T11:37:57.264Z,14.82
2023-02-14T11:40:39.702Z,15.14
2023-02-14T11:43:15.683Z,15.33
2023-02-14T11:45:47.717Z,15.22
2023-02-14T11:48:37.812Z,14.85
2023-02-14T11:51:15.693Z,15.60
2023-02-14T11:54:00.632Z,15.89
2023-02-14T11:57:13.813Z,15.35
2023-02-14T11:59:57.012Z,15.37
2023-02-14T12:02:48.979Z,15.68
2023-02-14T12:05:48.702Z,16.14
2023-02-14T12:08:23.909Z,15.96
2023-02-14T12:11:23.878Z,15.93
2023-02-14T12:13:58.348Z,15.64
2023-02-14T12:17:02.982Z,16.62
2023-02-14T12:20:16.666Z,16.37
2023-02-14T12:23:30.032Z,16.07
2023-02-14T12:26:14.016Z,16.65
2023-02-14T12:28:54.533Z,16.43
2023-02-14T12:31:22.058Z,16.35
2023-02-14T12:33:50.584Z,17.29
2023-02-14T12:37:02.131Z,16.74
2023-02-14T12:40:16.164Z,16.94
2023-02-14T12:43:51.494Z,17.18
2023-02-14T12:47:14.938Z,17.44
2023-02-14T12:50:16.656Z,16.95
2023-02-14T12:53:40.049Z,16.82
2023-02-14T12:56:50.165Z,17.19
2023-02-14T13:00:00.047Z,17.47
2023-02-14T13:03:15.528Z,17.69
2023-02-14T13:06:03.535Z,17.53
2023-02-14T13:09:13.492Z,17.65
2023-02-14T13:12:13.922Z,17.33
2023-02-14T13:15:35.644Z,17.61
2023-02-14T13:18:57.921Z,17.68
2023-02-14T13:21:35.521Z,17.88
2023-02-14T13:24:38.167Z,17.64
2023-02-14T13:27:16.160Z,16.37
2023-02-14T13:29:59.792Z,17.06
2023-02-14T13:32:37.624Z,16.83
2023-02-14T13:35:07.777Z,16.50
2023-02-14T13:37:36.904Z,16.48
2023-02-14T13:40:20.487Z,16.41
2023-02-14T13:42:50.595Z,16.18
2023-02-14T13:45:34.845Z,16.32
2023-02-14T13:48:28.528Z,15.64
2023-02-14T13:51:09.019Z,16.26
2023-02-14T13:53:48.972Z,16.08
2023-02-14T13:56:16.059Z,15.80
2023-02-14T13:59:06.408Z,15.36
2023-02-14T14:01:50.632Z,15.41
2023-02-14T14:04:44.241Z,15.19
2023-02-14T14:07:30.748Z,15.22
2023-02-14T14:10:02.109Z,15.23
2023-02-14T14:12:29.803Z,14.54
2023-02-14T14:15:05.853Z,14.52
2023-02-14T14:17:50.582Z,14.17
2023-02-14T14:20:20.808Z,13.88
2023-02-14T14:22:58.823Z,14.06
2023-02-14T14:25:43.708Z,13.76
2023-02-14T14:28:18.634Z,13.87
2023-02-14T14:30:46.316Z,13.96
2023-02-14T14:33:33.987Z,13.76
2023-02-14T14:36:11.197Z,13.35
2023-02-14T14:38:54.240Z,13.31
2023-02-14T14:41:29.823Z,13.63
2023-02-14T14:43:59.804Z,13.62
2023-02-14T14:46:27.894Z,13.49
2023-02-14T14:48:57.089Z,13.43
2023-02-14T14:51:35.882Z,13.32
2023-02-14T14:54:12.756Z,13.17
2023-02-14T14:57:02.806Z,13.25
2023-02-14T14:59:36.249Z,13.26
2023-02-14T15:02:27.988Z,13.28
2023-02-14T15:04:55.338Z,13.37
2023-02-14T15:07:36.440Z,13.22
2023-02-14T15:10:24.521Z,13.37
2023-02-14T15:13:13.266Z,13.48
2023-02-14T15:15:41.188Z,13.16
2023-02-14T15:18:11.744Z,12.98
2023-02-14T15:20:40.663Z,13.04
2023-02-14T15:23:17.304Z,12.90
2023-02-14T15:25:47.349Z,12.93
2023-02-14T15:28:35.712Z,13.00
2023-02-14T15:31:07.012Z,12.93
2023-02-14T15:33:35.733Z,12.83
2023-02-14T15:36:15.447Z,12.83
2023-02-14T15:38:43.754Z,12.79
2023-02-14T15:41:13.926Z,13.01
2023-02-14T15:43:41.496Z,13.01
2023-02-14T15:46:29.367Z,13.05
2023-02-14T15:49:01.345Z,12.94
2023-02-14T15:51:36.400Z,12.86
2023-02-14T15:54:31.911Z,12.92
2023-02-14T15:56:59.801Z,13.17
2023-02-14T15:59:33.477Z,13.45
2023-02-14T16:02:37.845Z,13.27
2023-02-14T16:05:27.274Z,12.82
2023-02-14T16:08:35.896Z,13.09
2023-02-14T16:11:31.748Z,12.78
2023-02-14T16:14:19.382Z,13.13
2023-02-14T16:17:13.427Z,12.96
2023-02-14T16:19:45.114Z,12.93
2023-02-14T16:22:32.111Z,12.79
2023-02-14T16:25:00.567Z,12.92
2023-02-14T16:27:28.070Z,12.71
2023-02-14T16:29:55.460Z,12.44
2023-02-14T16:32:24.632Z,12.24
2023-02-14T16:34:52.153Z,12.14
2023-02-14T16:37:47.625Z,12.02
2023-02-14T16:40:16.856Z,11.71
2023-02-14T16:42:44.327Z,11.67
2023-02-14T16:45:18.877Z,11.68
2023-02-14T16:47:48.328Z,11.70
2023-02-14T16:50:17.694Z,11.77
2023-02-14T16:52:49.911Z,11.31
2023-02-14T16:55:20.148Z,11.44
2023-02-14T16:57:50.749Z,11.17
2023-02-14T17:00:18.276Z,11.33
2023-02-14T17:02:45.617Z,11.24
2023-02-14T17:05:13.534Z,11.16
2023-02-14T17:07:43.621Z,11.09
2023-02-14T17:10:19.493Z,10.97
2023-02-14T17:12:48.724Z,11.21
2023-02-14T17:15:21.532Z,11.12
2023-02-14T17:17:50.464Z,11.05
2023-02-14T17:20:20.233Z,11.04
2023-02-14T17:22:48.201Z,11.01
2023-02-14T17:25:15.561Z,10.64
2023-02-14T17:27:44.480Z,10.81
2023-02-14T17:30:15.375Z,10.85
2023-02-14T17:32:43.434Z,10.73
2023-02-14T17:35:11.961Z,10.72
2023-02-14T17:37:39.627Z,10.62
2023-02-14T17:40:09.142Z,10.65
2023-02-14T17:42:36.682Z,10.60
2023-02-14T17:45:06.753Z,10.26
2023-02-14T17:47:35.077Z,10.48
2023-02-14T17:50:03.957Z,10.51
2023-02-14T17:52:31.437Z,10.59
2023-02-14T17:54:58.758Z,10.51
2023-02-14T17:57:26.165Z,10.50
2023-02-14T17:59:53.701Z,10.25
2023-02-14T18:02:21.020Z,10.01
2023-02-14T18:04:48.493Z,10.31
2023-02-14T18:07:16.531Z,10.22
2023-02-14T18:09:43.844Z,10.22
2023-02-14T18:12:14.775Z,10.13
2023-02-14T18:14:42.870Z,10.05
2023-02-14T18:17:13.675Z,9.88
2023-02-14T18:19:41.050Z,9.94
2023-02-14T18:22:08.373Z,9.93
2023-02-14T18:24:36.736Z,9.96
2023-02-14T18:27:06.032Z,9.91
2023-02-14T18:29:35.118Z,9.87
2023-02-14T18:32:03.833Z,9.81
2023-02-14T18:34:31.766Z,9.56
2023-02-14T18:37:02.124Z,9.78
2023-02-14T18:39:29.445Z,9.59
2023-02-14T18:41:59.925Z,9.52
2023-02-14T18:44:30.456Z,9.45
2023-02-14T18:47:00.508Z,9.31
2023-02-14T18:49:27.987Z,9.54
2023-02-14T18:51:57.252Z,9.57
2023-02-14T18:54:24.788Z,9.46
2023-02-14T18:56:52.135Z,9.38
2023-02-14T18:59:19.579Z,9.41
2023-02-14T19:01:47.330Z,9.51
2023-02-14T19:04:17.056Z,9.40
2023-02-14T19:06:44.879Z,9.40
2023-02-14T19:09:17.174Z,9.34
2023-02-14T19:11:45.532Z,9.46
2023-02-14T19:14:13.446Z,9.40
2023-02-14T19:16:55.802Z,9.18
2023-02-14T19:19:23.318Z,9.34
2023-02-14T19:21:51.197Z,9.39
2023-02-14T19:24:19.823Z,9.14
2023-02-14T19:26:48.337Z,9.36
2023-02-14T19:29:20.356Z,8.94
2023-02-14T19:31:54.648Z,8.87
2023-02-14T19:34:29.583Z,8.89
2023-02-14T19:37:00.580Z,8.82
2023-02-14T19:39:30.761Z,8.76
2023-02-14T19:41:59.860Z,8.77
2023-02-14T19:44:29.164Z,8.57
2023-02-14T19:46:59.879Z,8.73
2023-02-14T19:49:29.090Z,8.41
2023-02-14T19:51:57.954Z,8.19
2023-02-14T19:54:25.709Z,8.40
2023-02-14T19:56:56.029Z,8.15
2023-02-14T19:59:23.497Z,8.11
2023-02-14T20:01:54.437Z,7.95
2023-02-14T20:04:28.456Z,7.46
2023-02-14T20:06:56.912Z,7.46
2023-02-14T20:09:25.625Z,7.23
2023-02-14T20:11:57.874Z,6.89
2023-02-14T20:14:50.190Z,6.91
2023-02-14T20:17:19.409Z,7.03
2023-02-14T20:19:46.777Z,6.96
2023-02-14T20:22:14.174Z,7.06
2023-02-14T20:24:41.578Z,7.06
2023-02-14T20:27:09.009Z,6.68
2023-02-14T20:29:38.891Z,6.45
2023-02-14T20:32:06.413Z,6.41
2023-02-14T20:34:33.879Z,6.34
2023-02-14T20:37:01.327Z,6.30
2023-02-14T20:39:35.043Z,6.78
2023-02-14T20:42:02.692Z,6.81
2023-02-14T20:44:30.951Z,6.46
2023-02-14T20:46:58.627Z,6.46
2023-02-14T20:49:30.746Z,6.20
2023-02-14T20:51:59.234Z,6.01
2023-02-14T20:54:29.385Z,6.31
2023-02-14T20:56:57.903Z,6.43
2023-02-14T20:59:28.829Z,6.53
2023-02-14T21:01:59.254Z,6.57
2023-02-14T21:04:27.161Z,6.39
2023-02-14T21:06:54.652Z,6.55
2023-02-14T21:09:21.973Z,6.66
2023-02-14T21:11:50.291Z,6.42
2023-02-14T21:14:17.818Z,6.38
2023-02-14T21:16:45.129Z,6.59
2023-02-14T21:19:12.488Z,6.53
